Latest Weather Observations for Busselton Jetty

IDW60801

Issued at 11:05 am WST Wednesday 17 September 2014 (issued every 30 minutes, with the page automatically refreshed every 10 minutes)

About weather observations | Map of weather stations | Latest weather observations for WA | Other Formats
Station Details ID: 009937 Name: BUSSELTON JETTY Lat: -33.63 Lon: 115.34 Height: 3.0 m
Data from the previous 72 hours. | See also: Recent months for locations in Western Australia
Date/Time
WST
Temp
°C
App
Temp
°C
Dew
Point
Rel
Hum
%
Delta-T
°C
Wind Press
QNH
hPa
Press
MSL
hPa
Rain
since 9 am
mm
Dir
 
Spd
km/h
Gust
km/h
Spd
kts
Gust
kts
17/11:00am - - - - - NW 9 11 5 6 - - -
17/10:30am - - - - - NNW 7 9 4 5 - - -
17/10:00am - - - - - SSE 7 9 4 5 - - -
17/09:30am - - - - - SE 9 13 5 7 - - -
17/09:00am - - - - - SSE 13 15 7 8 - - -
17/08:30am - - - - - SSE 13 17 7 9 - - -
17/08:00am - - - - - SE 17 20 9 11 - - -
17/07:30am - - - - - SSE 9 15 5 8 - - -
17/07:00am - - - - - S 11 15 6 8 - - -
17/06:30am - - - - - S 11 15 6 8 - - -
17/06:00am - - - - - SSE 13 17 7 9 - - -
17/05:30am - - - - - S 11 17 6 9 - - -
17/05:00am - - - - - S 11 13 6 7 - - -
17/04:30am - - - - - S 9 13 5 7 - - -
17/04:00am - - - - - S 13 17 7 9 - - -
17/03:30am - - - - - S 11 15 6 8 - - -
17/03:00am - - - - - S 11 15 6 8 - - -
17/02:30am - - - - - S 11 15 6 8 - - -
17/02:00am - - - - - SSE 11 15 6 8 - - -
17/01:30am - - - - - SE 15 19 8 10 - - -
17/01:00am - - - - - SSE 19 24 10 13 - - -
17/12:30am - - - - - S 17 20 9 11 - - -
17/12:00am - - - - - S 13 17 7 9 - - -
 
Date/Time
WST
Temp
°C
App
Temp
°C
Dew
Point
Rel
Hum
%
Delta-T
°C
Wind Press
QNH
hPa
Press
MSL
hPa
Rain
since 9 am
mm
Dir
 
Spd
km/h
Gust
km/h
Spd
kts
Gust
kts
16/11:30pm - - - - - SSE 15 17 8 9 - - -
16/11:00pm - - - - - SSW 13 15 7 8 - - -
16/10:30pm - - - - - SSW 15 17 8 9 - - -
16/10:00pm - - - - - SSW 15 17 8 9 - - -
16/09:30pm - - - - - SSW 15 17 8 9 - - -
16/09:00pm - - - - - SSW 13 15 7 8 - - -
16/08:30pm - - - - - SSE 19 22 10 12 - - -
16/08:00pm - - - - - SSE 19 20 10 11 - - -
16/07:30pm - - - - - SSE 19 20 10 11 - - -
16/07:00pm - - - - - SSE 19 20 10 11 - - -
16/06:30pm - - - - - SSE 17 20 9 11 - - -
16/06:00pm - - - - - SSE 17 19 9 10 - - -
16/05:30pm - - - - - SSE 17 19 9 10 - - -
16/05:00pm - - - - - SE 20 28 11 15 - - -
16/04:30pm - - - - - ESE 19 22 10 12 - - -
16/04:00pm - - - - - ESE 22 28 12 15 - - -
16/03:30pm - - - - - SE 19 26 10 14 - - -
16/03:00pm - - - - - ESE 19 24 10 13 - - -
16/02:30pm - - - - - SE 19 24 10 13 - - -
16/02:00pm - - - - - SE 22 30 12 16 - - -
16/01:30pm - - - - - ESE 20 26 11 14 - - -
16/01:00pm - - - - - SE 24 32 13 17 - - -
16/12:30pm - - - - - SSE 20 26 11 14 - - -
16/12:00pm - - - - - ESE 24 32 13 17 - - -
16/11:30am - - - - - SE 24 30 13 16 - - -
16/11:00am - - - - - SE 24 30 13 16 - - -
16/10:30am - - - - - SE 24 32 13 17 - - -
16/10:00am - - - - - SE 24 28 13 15 - - -
16/09:30am - - - - - SE 13 20 7 11 - - -
16/09:00am - - - - - SE 15 22 8 12 - - -
16/08:30am - - - - - SE 17 20 9 11 - - -
16/08:00am - - - - - SE 22 26 12 14 - - -
16/07:30am - - - - - SE 17 19 9 10 - - -
16/07:00am - - - - - SSE 15 19 8 10 - - -
16/06:30am - - - - - SSE 17 20 9 11 - - -
16/06:00am - - - - - SSE 17 20 9 11 - - -
16/05:30am - - - - - SSE 19 22 10 12 - - -
16/05:00am - - - - - S 20 26 11 14 - - -
16/04:30am - - - - - SSE 19 22 10 12 - - -
16/04:00am - - - - - S 17 20 9 11 - - -
16/03:30am - - - - - S 17 22 9 12 - - -
16/03:00am - - - - - S 17 22 9 12 - - -
16/02:30am - - - - - S 19 24 10 13 - - -
16/02:00am - - - - - S 22 26 12 14 - - -
16/01:30am - - - - - S 24 28 13 15 - - -
16/01:00am - - - - - SSE 24 30 13 16 - - -
16/12:30am - - - - - SSE 22 32 12 17 - - -
16/12:00am - - - - - S 20 28 11 15 - - -
 
Date/Time
WST
Temp
°C
App
Temp
°C
Dew
Point
Rel
Hum
%
Delta-T
°C
Wind Press
QNH
hPa
Press
MSL
hPa
Rain
since 9 am
mm
Dir
 
Spd
km/h
Gust
km/h
Spd
kts
Gust
kts
15/11:30pm - - - - - S 30 35 16 19 - - -
15/11:00pm - - - - - S 30 37 16 20 - - -
15/10:30pm - - - - - S 30 35 16 19 - - -
15/10:00pm - - - - - S 28 33 15 18 - - -
15/09:30pm - - - - - S 30 35 16 19 - - -
15/09:00pm - - - - - S 30 37 16 20 - - -
15/08:30pm - - - - - S 28 37 15 20 - - -
15/08:00pm - - - - - S 26 32 14 17 - - -
15/07:30pm - - - - - SSW 28 32 15 17 - - -
15/07:00pm - - - - - SSW 28 32 15 17 - - -
15/06:30pm - - - - - SSW 26 30 14 16 - - -
15/06:00pm - - - - - SSW 32 39 17 21 - - -
15/05:30pm - - - - - SSW 32 37 17 20 - - -
15/05:00pm - - - - - SW 32 39 17 21 - - -
15/04:30pm - - - - - SW 33 39 18 21 - - -
15/04:22pm - - - - - SW 28 37 15 20 - - -
15/04:00pm - - - - - NW 17 19 9 10 - - -
15/03:30pm - - - - - NW 17 24 9 13 - - -
15/03:00pm - - - - - NNW 17 17 9 9 - - -
15/02:30pm - - - - - NNW 15 17 8 9 - - -
15/02:00pm - - - - - NW 15 17 8 9 - - -
15/01:30pm - - - - - NNW 9 13 5 7 - - -
15/01:00pm - - - - - W 6 7 3 4 - - -
15/12:30pm - - - - - SE 6 9 3 5 - - -
15/12:00pm - - - - - S 11 17 6 9 - - -
15/11:30am - - - - - S 17 26 9 14 - - -
15/11:00am - - - - - S 19 26 10 14 - - -
15/10:30am - - - - - SSE 19 19 10 10 - - -
15/10:00am - - - - - S 17 22 9 12 - - -
15/09:30am - - - - - SSE 13 24 7 13 - - -
15/09:00am - - - - - SSE 7 11 4 6 - - -
15/08:30am - - - - - SSE 9 11 5 6 - - -
15/08:00am - - - - - SSE 7 9 4 5 - - -
15/07:30am - - - - - SW 9 11 5 6 - - -
15/07:00am - - - - - S 7 9 4 5 - - -
15/06:30am - - - - - S 13 15 7 8 - - -
15/06:00am - - - - - SSE 15 17 8 9 - - -
15/05:30am - - - - - SE 9 13 5 7 - - -
15/05:00am - - - - - S 11 15 6 8 - - -
15/04:30am - - - - - SSW 13 15 7 8 - - -
15/04:00am - - - - - SSW 13 15 7 8 - - -
15/03:30am - - - - - S 15 20 8 11 - - -
15/03:00am - - - - - S 15 17 8 9 - - -
15/02:30am - - - - - SSW 15 19 8 10 - - -
15/02:00am - - - - - S 15 19 8 10 - - -
15/01:30am - - - - - SSW 17 22 9 12 - - -
15/01:00am - - - - - SSW 13 15 7 8 - - -
15/12:30am - - - - - SW 11 15 6 8 - - -
15/12:00am - - - - - SSW 9 13 5 7 - - -
 
Date/Time
WST
Temp
°C
App
Temp
°C
Dew
Point
Rel
Hum
%
Delta-T
°C
Wind Press
QNH
hPa
Press
MSL
hPa
Rain
since 9 am
mm
Dir
 
Spd
km/h
Gust
km/h
Spd
kts
Gust
kts
14/11:30pm - - - - - SSW 13 15 7 8 - - -
14/11:00pm - - - - - SSW 19 24 10 13 - - -
14/10:30pm - - - - - SSW 24 28 13 15 - - -
14/10:00pm - - - - - SSW 26 32 14 17 - - -
14/09:30pm - - - - - SSW 24 28 13 15 - - -
14/09:00pm - - - - - SSW 22 28 12 15 - - -
14/08:30pm - - - - - SSW 19 22 10 12 - - -
14/08:00pm - - - - - SSW 24 28 13 15 - - -
14/07:30pm - - - - - SSW 28 32 15 17 - - -
14/07:00pm - - - - - SSW 30 37 16 20 - - -
14/06:30pm - - - - - SSW 30 37 16 20 - - -
14/06:00pm - - - - - SSW 28 33 15 18 - - -
14/05:30pm - - - - - SSW 20 24 11 13 - - -
14/05:00pm - - - - - SSW 20 26 11 14 - - -
14/04:30pm - - - - - SW 19 22 10 12 - - -
14/04:00pm - - - - - WNW 15 19 8 10 - - -
14/03:30pm - - - - - N 13 15 7 8 - - -
14/03:00pm - - - - - N 15 17 8 9 - - -
14/02:30pm - - - - - N 17 19 9 10 - - -
14/02:00pm - - - - - N 15 17 8 9 - - -
14/01:30pm - - - - - N 17 20 9 11 - - -
14/01:00pm - - - - - N 20 24 11 13 - - -
14/12:30pm - - - - - N 22 26 12 14 - - -
14/12:00pm - - - - - NNE 24 28 13 15 - - -
14/11:30am - - - - - NNE 22 26 12 14 - - -

Other Formats:

Comma delimited format used in spreadsheet applications
http://www.bom.gov.au/fwo/IDW60801/IDW60801.95602.axf

JavaScript Object Notation format (JSON) in row-major order
http://www.bom.gov.au/fwo/IDW60801/IDW60801.95602.json